createdAt,value
2022-09-22T00:01:01.782Z,-60
2022-09-22T00:03:36.154Z,-59
2022-09-22T00:06:08.549Z,-60
2022-09-22T00:08:37.065Z,-60
2022-09-22T00:11:16.761Z,-60
2022-09-22T00:13:45.654Z,-60
2022-09-22T00:16:13.702Z,-60
2022-09-22T00:18:40.141Z,-60
2022-09-22T00:21:09.360Z,-60
2022-09-22T00:23:36.816Z,-60
2022-09-22T00:26:10.585Z,-59
2022-09-22T00:28:38.840Z,-60
2022-09-22T00:31:13.489Z,-60
2022-09-22T00:33:43.238Z,-60
2022-09-22T00:36:10.201Z,-60
2022-09-22T00:38:38.598Z,-59
2022-09-22T00:41:06.024Z,-59
2022-09-22T00:43:36.426Z,-60
2022-09-22T00:46:14.537Z,-60
2022-09-22T00:48:46.829Z,-60
2022-09-22T00:51:16.645Z,-59
2022-09-22T00:53:43.550Z,-60
2022-09-22T00:56:17.994Z,-60
2022-09-22T00:58:56.901Z,-59
2022-09-22T01:01:23.376Z,-60
2022-09-22T01:03:50.748Z,-59
2022-09-22T01:06:22.871Z,-60
2022-09-22T01:08:50.372Z,-60
2022-09-22T01:11:20.535Z,-60
2022-09-22T01:14:01.318Z,-60
2022-09-22T01:16:43.423Z,-60
2022-09-22T01:19:33.998Z,-60
2022-09-22T01:22:32.563Z,-60
2022-09-22T01:25:29.718Z,-60
2022-09-22T01:28:33.834Z,-59
2022-09-22T01:31:11.473Z,-60
2022-09-22T01:33:45.699Z,-60
2022-09-22T01:36:25.687Z,-59
2022-09-22T01:39:37.911Z,-59
2022-09-22T01:42:18.158Z,-60
2022-09-22T01:45:03.091Z,-60
2022-09-22T01:47:42.756Z,-59
2022-09-22T01:50:23.185Z,-59
2022-09-22T01:52:52.605Z,-60
2022-09-22T01:55:24.991Z,-59
2022-09-22T01:58:05.610Z,-59
2022-09-22T02:00:32.662Z,-60
2022-09-22T02:03:27.546Z,-59
2022-09-22T02:06:04.119Z,-60
2022-09-22T02:08:37.565Z,-60
2022-09-22T02:11:10.765Z,-60
2022-09-22T02:13:37.718Z,-59
2022-09-22T02:16:07.010Z,-59
2022-09-22T02:18:40.638Z,-59
2022-09-22T02:21:07.109Z,-59
2022-09-22T02:23:34.225Z,-59
2022-09-22T02:26:02.815Z,-59
2022-09-22T02:28:32.507Z,-59
2022-09-22T02:31:19.148Z,-59
2022-09-22T02:33:46.300Z,-59
2022-09-22T02:36:24.983Z,-60
2022-09-22T02:39:03.912Z,-59
2022-09-22T02:41:51.180Z,-59
2022-09-22T02:44:23.849Z,-59
2022-09-22T02:46:57.633Z,-59
2022-09-22T02:49:26.011Z,-59
2022-09-22T02:51:53.038Z,-59
2022-09-22T02:54:19.377Z,-59
2022-09-22T02:56:46.042Z,-59
2022-09-22T02:59:12.585Z,-59
2022-09-22T03:01:39.056Z,-60
2022-09-22T03:04:05.838Z,-59
2022-09-22T03:06:32.400Z,-59
2022-09-22T03:08:58.748Z,-59
2022-09-22T03:11:27.074Z,-59
2022-09-22T03:13:53.981Z,-59
2022-09-22T03:16:20.458Z,-59
2022-09-22T03:18:46.973Z,-59
2022-09-22T03:21:13.303Z,-59
2022-09-22T03:23:39.653Z,-60
2022-09-22T03:26:05.998Z,-59
2022-09-22T03:28:32.348Z,-59
2022-09-22T03:30:58.738Z,-59
2022-09-22T03:33:25.180Z,-59
2022-09-22T03:35:51.595Z,-59
2022-09-22T03:38:17.955Z,-59
2022-09-22T03:40:52.300Z,-59
2022-09-22T03:43:19.109Z,-60
2022-09-22T03:45:45.590Z,-59
2022-09-22T03:48:12.133Z,-60
2022-09-22T03:50:38.438Z,-59
2022-09-22T03:53:04.756Z,-60
2022-09-22T03:55:31.069Z,-59
2022-09-22T03:57:57.407Z,-59
2022-09-22T04:00:23.750Z,-59
2022-09-22T04:02:50.138Z,-59
2022-09-22T04:05:16.566Z,-59
2022-09-22T04:07:42.989Z,-59
2022-09-22T04:10:09.482Z,-59
2022-09-22T04:12:37.175Z,-60
2022-09-22T04:15:04.398Z,-61
2022-09-22T04:17:30.769Z,-62
2022-09-22T04:19:57.254Z,-60
2022-09-22T04:22:23.818Z,-61
2022-09-22T04:24:50.223Z,-60
2022-09-22T04:27:20.852Z,-60
2022-09-22T04:29:47.918Z,-61
2022-09-22T04:32:14.477Z,-60
2022-09-22T04:34:40.938Z,-60
2022-09-22T04:37:07.319Z,-60
2022-09-22T04:39:33.978Z,-60
2022-09-22T04:42:00.375Z,-59
2022-09-22T04:44:26.723Z,-59
2022-09-22T04:46:53.308Z,-61
2022-09-22T04:49:19.686Z,-59
2022-09-22T04:51:46.189Z,-61
2022-09-22T04:54:14.703Z,-59
2022-09-22T04:56:44.354Z,-59
2022-09-22T04:59:11.772Z,-60
2022-09-22T05:01:38.249Z,-59
2022-09-22T05:04:04.745Z,-59
2022-09-22T05:06:31.170Z,-59
2022-09-22T05:08:57.718Z,-59
2022-09-22T05:11:24.231Z,-60
2022-09-22T05:13:50.865Z,-61
2022-09-22T05:16:18.403Z,-62
2022-09-22T05:18:44.827Z,-60
2022-09-22T05:21:11.217Z,-60
2022-09-22T05:23:39.338Z,-60
2022-09-22T05:26:06.638Z,-60
2022-09-22T05:28:33.074Z,-59
2022-09-22T05:30:59.453Z,-59
2022-09-22T05:33:25.792Z,-59
2022-09-22T05:35:52.166Z,-59
2022-09-22T05:38:18.490Z,-60
2022-09-22T05:40:47.133Z,-59
2022-09-22T05:43:13.910Z,-60
2022-09-22T05:45:40.354Z,-60
2022-09-22T05:48:06.727Z,-60
2022-09-22T05:50:33.078Z,-60
2022-09-22T05:53:17.549Z,-60
2022-09-22T05:55:44.449Z,-60
2022-09-22T05:58:11.901Z,-60
2022-09-22T06:00:39.846Z,-60
2022-09-22T06:03:06.389Z,-59
2022-09-22T06:05:34.960Z,-59
2022-09-22T06:08:06.253Z,-60
2022-09-22T06:10:37.698Z,-59
2022-09-22T06:13:09.349Z,-59
2022-09-22T06:15:37.619Z,-59
2022-09-22T06:18:07.434Z,-59
2022-09-22T06:20:34.972Z,-59
2022-09-22T06:23:01.366Z,-59
2022-09-22T06:25:30.407Z,-59
2022-09-22T06:28:00.641Z,-59
2022-09-22T06:30:27.071Z,-59
2022-09-22T06:32:55.171Z,-59
2022-09-22T06:35:21.801Z,-60
2022-09-22T06:37:51.352Z,-60
2022-09-22T06:40:17.901Z,-59
2022-09-22T06:42:44.716Z,-60
2022-09-22T06:45:11.049Z,-59
2022-09-22T06:47:38.510Z,-59
2022-09-22T06:50:05.856Z,-60
2022-09-22T06:52:35.034Z,-59
2022-09-22T06:55:03.654Z,-59
2022-09-22T06:57:32.998Z,-59
2022-09-22T07:00:01.018Z,-59
2022-09-22T07:02:29.506Z,-59
2022-09-22T07:04:58.972Z,-60
2022-09-22T07:07:31.915Z,-60
2022-09-22T07:09:58.453Z,-60
2022-09-22T07:12:25.780Z,-59
2022-09-22T07:14:53.305Z,-60
2022-09-22T07:17:23.593Z,-59
2022-09-22T07:19:51.063Z,-59
2022-09-22T07:22:19.105Z,-59
2022-09-22T07:24:45.716Z,-60
2022-09-22T07:27:14.179Z,-59
2022-09-22T07:29:40.531Z,-60
2022-09-22T07:32:06.989Z,-60
2022-09-22T07:34:33.397Z,-59
2022-09-22T07:36:59.738Z,-60
2022-09-22T07:39:26.158Z,-59
2022-09-22T07:41:52.591Z,-60
2022-09-22T07:44:40.970Z,-60
2022-09-22T07:47:10.065Z,-59
2022-09-22T07:49:36.375Z,-60
2022-09-22T07:52:02.864Z,-59
2022-09-22T07:54:29.175Z,-59
2022-09-22T07:56:58.517Z,-59
2022-09-22T07:59:26.113Z,-60
2022-09-22T08:01:53.006Z,-60
2022-09-22T08:04:22.821Z,-60
2022-09-22T08:06:55.265Z,-60
2022-09-22T08:09:22.881Z,-59
2022-09-22T08:11:50.041Z,-60
2022-09-22T08:14:17.381Z,-60
2022-09-22T08:16:44.289Z,-60
2022-09-22T08:19:14.577Z,-60
2022-09-22T08:21:49.234Z,-59
2022-09-22T08:24:21.311Z,-60
2022-09-22T08:26:50.304Z,-60
2022-09-22T08:29:16.665Z,-59
2022-09-22T08:31:45.307Z,-60
2022-09-22T08:34:14.025Z,-60
2022-09-22T08:36:42.574Z,-60
2022-09-22T08:39:08.891Z,-60
2022-09-22T08:41:41.423Z,-61
2022-09-22T08:44:08.695Z,-60
2022-09-22T08:46:38.943Z,-60
2022-09-22T08:49:37.076Z,-60
2022-09-22T08:52:15.651Z,-60
2022-09-22T08:54:44.237Z,-60
2022-09-22T08:57:34.695Z,-61
2022-09-22T09:00:06.763Z,-60
2022-09-22T09:02:42.450Z,-60
2022-09-22T09:05:36.734Z,-60
2022-09-22T09:08:32.322Z,-60
2022-09-22T09:11:30.301Z,-61
2022-09-22T09:14:25.390Z,-60
2022-09-22T09:16:59.430Z,-60
2022-09-22T09:19:38.651Z,-60
2022-09-22T09:22:15.394Z,-60
2022-09-22T09:27:39.630Z,-60
2022-09-22T09:30:11.439Z,-60
2022-09-22T09:32:53.049Z,-60
2022-09-22T09:35:39.613Z,-60
2022-09-22T09:38:14.029Z,-60
2022-09-22T09:40:41.145Z,-61
2022-09-22T09:43:08.162Z,-60
2022-09-22T09:45:52.733Z,-63
2022-09-22T09:48:41.994Z,-62
2022-09-22T09:51:12.198Z,-63
2022-09-22T09:53:46.750Z,-60
2022-09-22T09:56:25.479Z,-61
2022-09-22T09:59:18.457Z,-62
2022-09-22T10:01:47.365Z,-62
2022-09-22T10:04:28.366Z,-61
2022-09-22T10:07:09.398Z,-61
2022-09-22T10:09:35.890Z,-61
2022-09-22T10:12:03.834Z,-61
2022-09-22T10:14:33.803Z,-61
2022-09-22T10:17:00.634Z,-61
2022-09-22T10:19:29.967Z,-61
2022-09-22T10:22:15.933Z,-61
2022-09-22T10:24:53.518Z,-61
2022-09-22T10:27:24.966Z,-61
2022-09-22T10:30:11.397Z,-61
2022-09-22T10:32:38.423Z,-61
2022-09-22T10:35:27.954Z,-61
2022-09-22T10:37:59.814Z,-61
2022-09-22T10:40:27.791Z,-61
2022-09-22T10:42:57.519Z,-61
2022-09-22T10:45:38.649Z,-62
2022-09-22T10:48:15.465Z,-62
2022-09-22T10:50:56.177Z,-62
2022-09-22T10:53:39.470Z,-64
2022-09-22T10:56:20.717Z,-61
2022-09-22T10:59:14.925Z,-65
2022-09-22T11:01:47.471Z,-62
2022-09-22T11:04:19.647Z,-61
2022-09-22T11:07:35.916Z,-62
2022-09-22T11:10:36.337Z,-61
2022-09-22T11:13:16.420Z,-61
2022-09-22T11:16:18.354Z,-61
2022-09-22T11:19:04.118Z,-61
2022-09-22T11:21:50.741Z,-61
2022-09-22T11:24:47.546Z,-61
2022-09-22T11:27:28.936Z,-61
2022-09-22T11:30:03.617Z,-61
2022-09-22T11:33:02.141Z,-61
2022-09-22T11:36:20.110Z,-61
2022-09-22T11:39:03.969Z,-62
2022-09-22T11:41:31.262Z,-62
2022-09-22T11:44:14.058Z,-62
2022-09-22T11:46:43.424Z,-61
2022-09-22T11:49:51.088Z,-62
2022-09-22T11:52:43.189Z,-61
2022-09-22T11:55:15.778Z,-61
2022-09-22T11:57:46.233Z,-62
2022-09-22T12:00:16.342Z,-62
2022-09-22T12:03:02.624Z,-61
2022-09-22T12:05:41.614Z,-61
2022-09-22T12:08:13.805Z,-62
2022-09-22T12:10:47.001Z,-61
2022-09-22T12:13:17.605Z,-61
2022-09-22T12:16:23.010Z,-62
2022-09-22T12:18:55.762Z,-61
2022-09-22T12:21:56.066Z,-61
2022-09-22T12:24:22.967Z,-62
2022-09-22T12:26:50.850Z,-63
2022-09-22T12:29:17.132Z,-62
2022-09-22T12:31:48.210Z,-62
2022-09-22T12:34:21.704Z,-60
2022-09-22T12:36:51.116Z,-59
2022-09-22T12:39:21.886Z,-59
2022-09-22T12:41:52.254Z,-59
2022-09-22T12:44:24.977Z,-59
2022-09-22T12:46:57.408Z,-59
2022-09-22T12:49:23.935Z,-59
2022-09-22T12:51:51.157Z,-60
2022-09-22T12:54:24.475Z,-60
2022-09-22T12:57:00.820Z,-59
2022-09-22T12:59:36.472Z,-59
2022-09-22T13:02:15.836Z,-59
2022-09-22T13:05:03.511Z,-61
2022-09-22T13:07:43.962Z,-61
2022-09-22T13:10:22.663Z,-61
2022-09-22T13:13:00.917Z,-61
2022-09-22T13:15:51.119Z,-62
2022-09-22T13:18:35.642Z,-62
2022-09-22T13:21:21.225Z,-61
2022-09-22T13:23:53.708Z,-62
2022-09-22T13:26:55.277Z,-62
2022-09-22T13:29:21.918Z,-61
2022-09-22T13:31:51.123Z,-61
2022-09-22T13:34:35.271Z,-61
2022-09-22T13:37:11.018Z,-61
2022-09-22T13:39:46.396Z,-61
2022-09-22T13:42:32.287Z,-61
2022-09-22T13:45:16.591Z,-61
2022-09-22T13:47:43.564Z,-61
2022-09-22T13:50:20.081Z,-61
2022-09-22T13:52:51.733Z,-61
2022-09-22T13:55:33.138Z,-61
2022-09-22T13:58:00.476Z,-61
2022-09-22T14:00:41.375Z,-61
2022-09-22T14:03:19.698Z,-62
2022-09-22T14:05:53.653Z,-61
2022-09-22T14:08:27.947Z,-61
2022-09-22T14:10:57.812Z,-61
2022-09-22T14:13:40.698Z,-61
2022-09-22T14:16:47.153Z,-61
2022-09-22T14:19:29.188Z,-61
2022-09-22T14:21:57.929Z,-61
2022-09-22T14:24:25.454Z,-61
2022-09-22T14:27:04.504Z,-61
2022-09-22T14:29:38.870Z,-61
2022-09-22T14:32:14.738Z,-61
2022-09-22T14:34:47.529Z,-61
2022-09-22T14:37:33.511Z,-62
2022-09-22T14:40:05.244Z,-61
2022-09-22T14:42:33.659Z,-62
2022-09-22T14:45:09.205Z,-61
2022-09-22T14:47:40.698Z,-61
2022-09-22T14:50:20.461Z,-61
2022-09-22T14:52:59.040Z,-61
2022-09-22T14:55:29.030Z,-62
2022-09-22T14:57:56.644Z,-62
2022-09-22T15:00:41.920Z,-62
2022-09-22T15:03:20.598Z,-60
2022-09-22T15:05:47.886Z,-61
2022-09-22T15:08:22.665Z,-60
2022-09-22T15:10:59.517Z,-61
2022-09-22T15:13:34.921Z,-64
2022-09-22T15:16:01.586Z,-63
2022-09-22T15:18:30.741Z,-62
2022-09-22T15:21:02.808Z,-64
2022-09-22T15:23:44.714Z,-63
2022-09-22T15:26:22.809Z,-63
2022-09-22T15:28:54.045Z,-63
2022-09-22T15:31:26.475Z,-63
2022-09-22T15:33:56.966Z,-63
2022-09-22T15:36:25.582Z,-63
2022-09-22T15:38:59.548Z,-63
2022-09-22T15:41:26.167Z,-62
2022-09-22T15:43:52.950Z,-63
2022-09-22T15:46:29.170Z,-61
2022-09-22T15:49:15.065Z,-62
2022-09-22T15:51:41.407Z,-63
2022-09-22T15:54:19.238Z,-62
2022-09-22T15:56:47.933Z,-62
2022-09-22T15:59:19.719Z,-61
2022-09-22T16:01:46.504Z,-62
2022-09-22T16:04:12.886Z,-62
2022-09-22T16:06:42.491Z,-61
2022-09-22T16:09:15.139Z,-63
2022-09-22T16:11:41.541Z,-63
2022-09-22T16:14:07.865Z,-63
2022-09-22T16:16:35.674Z,-63
2022-09-22T16:19:02.274Z,-63
2022-09-22T16:21:33.177Z,-62
2022-09-22T16:24:08.135Z,-63
2022-09-22T16:26:37.048Z,-63
2022-09-22T16:29:04.406Z,-63
2022-09-22T16:31:31.316Z,-63
2022-09-22T16:34:00.223Z,-62
2022-09-22T16:36:28.974Z,-63
2022-09-22T16:38:55.649Z,-65
2022-09-22T16:41:24.549Z,-65
2022-09-22T16:43:51.786Z,-65
2022-09-22T16:46:28.422Z,-65
2022-09-22T16:48:56.552Z,-65
2022-09-22T16:51:22.905Z,-64
2022-09-22T16:53:55.310Z,-64
2022-09-22T16:56:24.122Z,-64
2022-09-22T16:58:51.629Z,-65
2022-09-22T17:01:19.987Z,-66
2022-09-22T17:03:49.385Z,-65
2022-09-22T17:06:18.149Z,-65
2022-09-22T17:08:45.815Z,-65
2022-09-22T17:11:14.163Z,-64
2022-09-22T17:13:43.485Z,-64
2022-09-22T17:16:25.237Z,-64
2022-09-22T17:18:52.528Z,-67
2022-09-22T17:21:21.795Z,-64
2022-09-22T17:23:50.519Z,-63
2022-09-22T17:26:18.283Z,-62
2022-09-22T17:28:45.079Z,-62
2022-09-22T17:31:11.729Z,-62
2022-09-22T17:33:49.969Z,-62
2022-09-22T17:36:20.314Z,-62
2022-09-22T17:38:50.259Z,-62
2022-09-22T17:41:21.816Z,-62
2022-09-22T17:43:53.216Z,-62
2022-09-22T17:46:20.407Z,-62
2022-09-22T17:49:05.337Z,-63
2022-09-22T17:51:53.042Z,-62
2022-09-22T17:54:37.885Z,-62
2022-09-22T17:57:05.370Z,-62
2022-09-22T17:59:33.337Z,-62
2022-09-22T18:02:00.792Z,-62
2022-09-22T18:04:28.129Z,-62
2022-09-22T18:06:54.469Z,-62
2022-09-22T18:09:20.883Z,-63
2022-09-22T18:11:48.154Z,-63
2022-09-22T18:14:14.510Z,-62
2022-09-22T18:16:42.241Z,-60
2022-09-22T18:19:08.817Z,-61
2022-09-22T18:21:39.282Z,-60
2022-09-22T18:24:06.849Z,-60
2022-09-22T18:26:38.233Z,-61
2022-09-22T18:29:09.985Z,-62
2022-09-22T18:31:38.114Z,-61
2022-09-22T18:34:07.461Z,-60
2022-09-22T18:36:34.829Z,-60
2022-09-22T18:39:01.167Z,-61
2022-09-22T18:41:28.486Z,-60
2022-09-22T18:43:55.116Z,-62
2022-09-22T18:46:21.963Z,-62
2022-09-22T18:49:04.130Z,-59
2022-09-22T18:51:50.286Z,-60
2022-09-22T18:54:18.149Z,-61
2022-09-22T18:56:46.045Z,-59
2022-09-22T18:59:18.810Z,-60
2022-09-22T19:01:46.148Z,-60
2022-09-22T19:04:17.517Z,-60
2022-09-22T19:07:03.456Z,-64
2022-09-22T19:09:29.955Z,-63
2022-09-22T19:11:56.490Z,-63
2022-09-22T19:14:24.183Z,-63
2022-09-22T19:16:51.287Z,-62
2022-09-22T19:19:20.162Z,-64
2022-09-22T19:21:50.108Z,-61
2022-09-22T19:24:17.525Z,-62
2022-09-22T19:26:44.286Z,-62
2022-09-22T19:29:12.353Z,-62
2022-09-22T19:31:41.967Z,-61
2022-09-22T19:34:09.518Z,-61
2022-09-22T19:36:36.846Z,-62
2022-09-22T19:39:06.973Z,-63
2022-09-22T19:41:36.155Z,-62
2022-09-22T19:44:02.890Z,-61
2022-09-22T19:46:30.248Z,-63
2022-09-22T19:48:57.269Z,-65
2022-09-22T19:51:24.428Z,-62
2022-09-22T19:53:52.069Z,-63
2022-09-22T19:56:20.889Z,-62
2022-09-22T19:58:51.297Z,-61
2022-09-22T20:01:31.976Z,-61
2022-09-22T20:03:59.223Z,-61
2022-09-22T20:06:28.490Z,-61
2022-09-22T20:09:02.749Z,-60
2022-09-22T20:11:34.763Z,-61
2022-09-22T20:14:20.014Z,-63
2022-09-22T20:17:03.051Z,-61
2022-09-22T20:19:31.562Z,-61
2022-09-22T20:22:18.646Z,-60
2022-09-22T20:24:54.842Z,-60
2022-09-22T20:27:26.873Z,-60
2022-09-22T20:29:57.024Z,-60
2022-09-22T20:32:28.456Z,-60
2022-09-22T20:34:55.701Z,-60
2022-09-22T20:37:23.417Z,-60
2022-09-22T20:39:50.038Z,-60
2022-09-22T20:42:17.446Z,-60
2022-09-22T20:44:44.153Z,-60
2022-09-22T20:47:15.648Z,-62
2022-09-22T20:49:43.753Z,-61
2022-09-22T20:52:15.566Z,-61
2022-09-22T20:54:42.490Z,-60
2022-09-22T20:57:09.301Z,-61
2022-09-22T20:59:36.080Z,-60
2022-09-22T21:02:02.465Z,-60
2022-09-22T21:04:29.945Z,-60
2022-09-22T21:06:57.930Z,-60
2022-09-22T21:09:43.048Z,-60
2022-09-22T21:12:09.841Z,-60
2022-09-22T21:14:36.237Z,-60
2022-09-22T21:17:06.718Z,-60
2022-09-22T21:19:34.361Z,-60
2022-09-22T21:22:00.834Z,-60
2022-09-22T21:24:31.312Z,-60
2022-09-22T21:26:58.328Z,-60
2022-09-22T21:29:24.687Z,-60
2022-09-22T21:31:51.423Z,-60
2022-09-22T21:34:18.402Z,-60
2022-09-22T21:36:45.177Z,-60
2022-09-22T21:39:11.498Z,-60
2022-09-22T21:41:37.858Z,-60
2022-09-22T21:44:05.630Z,-60
2022-09-22T21:46:33.213Z,-60
2022-09-22T21:49:02.181Z,-60
2022-09-22T21:51:34.170Z,-60
2022-09-22T21:54:02.957Z,-60
2022-09-22T21:56:30.123Z,-60
2022-09-22T21:58:57.109Z,-60
2022-09-22T22:01:29.077Z,-60
2022-09-22T22:03:57.225Z,-60
2022-09-22T22:06:39.966Z,-60
2022-09-22T22:09:11.038Z,-60
2022-09-22T22:11:39.658Z,-60
2022-09-22T22:14:08.692Z,-60
2022-09-22T22:16:38.660Z,-60
2022-09-22T22:19:06.435Z,-60
2022-09-22T22:21:33.295Z,-60
2022-09-22T22:24:22.531Z,-60
2022-09-22T22:26:51.691Z,-60
2022-09-22T22:29:19.139Z,-60
2022-09-22T22:31:47.385Z,-60
2022-09-22T22:34:13.907Z,-60
2022-09-22T22:36:41.194Z,-60
2022-09-22T22:39:09.850Z,-60
2022-09-22T22:41:36.603Z,-60
2022-09-22T22:44:03.482Z,-60
2022-09-22T22:46:30.053Z,-60
2022-09-22T22:48:57.402Z,-60
2022-09-22T22:51:24.371Z,-60
2022-09-22T22:53:51.686Z,-60
2022-09-22T22:56:20.111Z,-60
2022-09-22T22:58:48.703Z,-60
2022-09-22T23:01:23.888Z,-60
2022-09-22T23:03:58.374Z,-60
2022-09-22T23:06:27.241Z,-60
2022-09-22T23:08:54.263Z,-60
2022-09-22T23:11:23.553Z,-60
2022-09-22T23:13:52.972Z,-60
2022-09-22T23:16:23.643Z,-60
2022-09-22T23:18:51.261Z,-60
2022-09-22T23:21:19.818Z,-60
2022-09-22T23:23:47.698Z,-60
2022-09-22T23:26:15.596Z,-60
2022-09-22T23:28:42.747Z,-60
2022-09-22T23:31:11.813Z,-59
2022-09-22T23:33:40.855Z,-60
2022-09-22T23:36:09.038Z,-60
2022-09-22T23:38:35.957Z,-60
2022-09-22T23:41:03.646Z,-60
2022-09-22T23:43:31.291Z,-60
2022-09-22T23:45:58.554Z,-60
2022-09-22T23:48:26.706Z,-60
2022-09-22T23:50:54.284Z,-60
2022-09-22T23:53:25.317Z,-60
2022-09-22T23:55:51.653Z,-60
2022-09-22T23:58:18.884Z,-60
